Home > Products > Valid Products > TAF

000
FTUS43 KLSX 211500 AAA
TAFUIN
TAF AMD
KUIN 211515Z 2115/2212 05007KT P6SM SKC
     FM212300 07005KT P6SM SKC=



000
FTUS43 KLSX 211500 AAA
TAFSTL
TAF AMD
KSTL 211507Z 2115/2218 02005KT P6SM SKC
     FM220100 07005KT P6SM SKC=



000
FTUS43 KLSX 211100
TAFUIN
TAF
KUIN 211138Z 2112/2212 03007KT P6SM SKC
     FM212300 07005KT P6SM SKC=



000
FTUS43 KLSX 211100
TAFSTL
TAF
KSTL 211138Z 2112/2218 28004KT P6SM SKC
     FM211500 02005KT P6SM SKC
     FM220100 07005KT P6SM SKC=



000
FTUS43 KLSX 211100
TAFSTL
TAF
KSTL 211138Z 2112/2218 28004KT P6SM SKC
     FM211500 02005KT P6SM SKC
     FM220100 07005KT P6SM SKC=



000
FTUS43 KLSX 211100
TAFSUS
TAF
KSUS 211138Z 2112/2212 00000KT P6SM SKC
     FM211500 01004KT P6SM SKC
     FM220100 VRB03KT P6SM SKC=



000
FTUS43 KLSX 211100
TAFCOU
TAF
KCOU 211138Z 2112/2212 34004KT P6SM SKC
     FM211500 03006KT P6SM SKC
     FM220000 07005KT P6SM SKC=



000
FTUS43 KLSX 211100
TAFSUS
TAF
KSUS 211138Z 2112/2212 00000KT P6SM SKC
     FM211500 01004KT P6SM SKC
     FM220100 VRB03KT P6SM SKC=



000
FTUS43 KLSX 211100
TAFUIN
TAF
KUIN 211138Z 2112/2212 03007KT P6SM SKC
     FM212300 07005KT P6SM SKC=



000
FTUS43 KLSX 211100
TAFCOU
TAF
KCOU 211138Z 2112/2212 34004KT P6SM SKC
     FM211500 03006KT P6SM SKC
     FM220000 07005KT P6SM SKC=



000
FTUS43 KLSX 210900 AAA
TAFSTL
TAF AMD
KSTL 210909Z 2109/2212 28004KT P6SM SKC
     FM211500 02005KT P6SM SKC=



000
FTUS43 KLSX 210500
TAFSUS
TAF
KSUS 210520Z 2106/2206 VRB02KT P6SM SKC
     FM211500 36008KT P6SM SKC=



000
FTUS43 KLSX 210500
TAFUIN
TAF
KUIN 210520Z 2106/2206 VRB03KT P6SM SKC
     FM211400 03009KT P6SM SKC=



000
FTUS43 KLSX 210500
TAFSTL
TAF
KSTL 210520Z 2106/2212 VRB04KT P6SM SKC
     FM211500 36009KT P6SM SKC=



000
FTUS43 KLSX 210500
TAFCOU
TAF
KCOU 210520Z 2106/2206 VRB03KT P6SM SKC
     FM211500 03006KT P6SM SKC=



000
FTUS43 KLSX 210300 AAA
TAFSTL
TAF AMD
KSTL 210316Z 2103/2206 VRB04KT P6SM SKC
     FM211500 36009KT P6SM SKC=



000
FTUS43 KLSX 202300
TAFSTL
TAF
KSTL 202320Z 2100/2206 VRB04KT P6SM SKC
     FM211500 36009KT P6SM SKC=



000
FTUS43 KLSX 202300
TAFCOU
TAF
KCOU 202320Z 2100/2124 VRB03KT P6SM SKC
     FM211500 03006KT P6SM SKC=



000
FTUS43 KLSX 202300
TAFUIN
TAF
KUIN 202320Z 2100/2124 VRB03KT P6SM SKC
     FM211400 03009KT P6SM SKC=



000
FTUS43 KLSX 202300
TAFSUS
TAF
KSUS 202320Z 2100/2124 VRB02KT P6SM SKC
     FM211500 36008KT P6SM SKC=



000
FTUS43 KLSX 202000 AAA
TAFSUS
TAF AMD
KSUS 202059Z 2021/2118 30012KT P6SM SKC
     FM210000 VRB03KT P6SM SKC
     FM211500 36008KT P6SM SKC=



000
FTUS43 KLSX 202000 AAA
TAFSTL
TAF AMD
KSTL 202056Z 2021/2124 29014KT P6SM SKC
     FM210000 VRB04KT P6SM SKC
     FM211500 36009KT P6SM SKC=



000
FTUS43 KLSX 201700
TAFSTL
TAF
KSTL 201720Z 2018/2124 29010KT P6SM SKC
     FM210000 VRB04KT P6SM SKC
     FM211500 36009KT P6SM SKC=



000
FTUS43 KLSX 201700
TAFSUS
TAF
KSUS 201720Z 2018/2118 29008KT P6SM SKC
     FM210000 VRB03KT P6SM SKC
     FM211500 36008KT P6SM SKC=



000
FTUS43 KLSX 201700
TAFCOU
TAF
KCOU 201720Z 2018/2118 33008KT P6SM SKC
     FM210000 VRB03KT P6SM SKC
     FM211500 36008KT P6SM SKC=



000
FTUS43 KLSX 201700
TAFUIN
TAF
KUIN 201720Z 2018/2118 31011KT P6SM SKC
     FM210000 VRB03KT P6SM SKC
     FM211400 02009KT P6SM SKC=



000
FTUS43 KLSX 201500 AAA
TAFSTL
TAF AMD
KSTL 201508Z 2015/2118 29010KT P6SM SCT050
     FM202300 32006KT P6SM SKC
     FM211500 36008KT P6SM SKC=



000
FTUS43 KLSX 201100
TAFSTL
TAF
KSTL 201120Z 2012/2118 25006KT P6SM SCT100
     FM201800 29010KT P6SM SCT050
     FM202300 32006KT P6SM SKC
     FM211500 36008KT P6SM SKC=



000
FTUS43 KLSX 201100
TAFCOU
TAF
KCOU 201120Z 2012/2112 25006KT P6SM SKC
     FM201600 30008KT P6SM SKC=



000
FTUS43 KLSX 201100
TAFSUS
TAF
KSUS 201120Z 2012/2112 25006KT P6SM FEW100
     FM201800 29008KT P6SM SCT050
     FM210000 VRB03KT P6SM SKC=



000
FTUS43 KLSX 201100
TAFUIN
TAF
KUIN 201120Z 2012/2112 27008KT P6SM SKC
     FM201500 31008KT P6SM SKC
     FM210600 35005KT P6SM SKC=



000
FTUS43 KLSX 200900 AAA
TAFSTL
TAF AMD
KSTL 200906Z 2009/2112 24005KT P6SM BKN090
     FM201500 27005KT P6SM SCT050
     FM201900 31010KT P6SM SKC=



000
FTUS43 KLSX 200500
TAFUIN
TAF
KUIN 200520Z 2006/2106 22007KT P6SM BKN100
     FM201100 27007KT P6SM SCT050
     FM201500 32010KT P6SM SKC=



000
FTUS43 KLSX 200500
TAFCOU
TAF
KCOU 200520Z 2006/2106 20007KT P6SM BKN100
     FM201300 27007KT P6SM FEW050
     FM201700 32008KT P6SM SKC=



000
FTUS43 KLSX 200500
TAFSUS
TAF
KSUS 200520Z 2006/2106 VRB02KT P6SM BKN100
     FM201500 27005KT P6SM SCT050
     FM201900 31009KT P6SM SKC
     FM210000 VRB02KT P6SM SKC=



000
FTUS43 KLSX 200500
TAFSTL
TAF
KSTL 200520Z 2006/2112 21006KT P6SM BKN100
     FM201500 27005KT P6SM SCT050
     FM201900 31010KT P6SM SKC=



000
FTUS43 KLSX 192300
TAFUIN
TAF
KUIN 192320Z 2000/2024 22005KT P6SM BKN100
     FM201100 27007KT P6SM SCT050
     FM201500 32010KT P6SM SKC=



000
FTUS43 KLSX 192300
TAFSTL
TAF
KSTL 192320Z 2000/2106 21006KT P6SM BKN100
     FM201500 27005KT P6SM SCT050
     FM201900 32010KT P6SM SKC=



000
FTUS43 KLSX 192300
TAFUIN
TAF
KUIN 192320Z 2000/2024 22005KT P6SM BKN100
     FM201100 27007KT P6SM SCT050
     FM201500 32010KT P6SM SKC=



000
FTUS43 KLSX 192300
TAFCOU
TAF
KCOU 192320Z 2000/2024 20007KT P6SM BKN100
     FM201200 27007KT P6SM SCT050
     FM201700 32010KT P6SM SKC=



000
FTUS43 KLSX 192300
TAFSUS
TAF
KSUS 192320Z 2000/2024 VRB03KT P6SM BKN100
     FM201500 27005KT P6SM SCT050
     FM201900 32010KT P6SM SKC=



000
FTUS43 KLSX 192300
TAFSUS
TAF
KSUS 192320Z 2000/2024 VRB03KT P6SM BKN100
     FM201500 27005KT P6SM SCT050
     FM201900 32010KT P6SM SKC=



000
FTUS43 KLSX 192300
TAFSTL
TAF
KSTL 192320Z 2000/2106 21006KT P6SM BKN100
     FM201500 27005KT P6SM SCT050
     FM201900 32010KT P6SM SKC=



000
FTUS43 KLSX 192300
TAFCOU
TAF
KCOU 192320Z 2000/2024 20007KT P6SM BKN100
     FM201200 27007KT P6SM SCT050
     FM201700 32010KT P6SM SKC=



000
FTUS43 KLSX 192100 AAA
TAFSTL
TAF AMD
KSTL 192105Z 1921/2024 21006KT P6SM BKN150
     FM200200 20006KT P6SM BKN120
     FM201200 24005KT P6SM BKN050
     FM201700 29010KT P6SM FEW050=



000
FTUS43 KLSX 191700
TAFSTL
TAF
KSTL 191738Z 1918/2024 22007KT P6SM BKN150
     FM200200 20007KT P6SM BKN120
     FM201200 24007KT P6SM BKN050
     FM201700 29010KT P6SM FEW050=



000
FTUS43 KLSX 191700
TAFSUS
TAF
KSUS 191738Z 1918/2018 20007KT P6SM BKN200
     FM200200 20007KT P6SM BKN120
     FM201200 24007KT P6SM BKN050
     FM201700 29010KT P6SM SCT050=



000
FTUS43 KLSX 191700
TAFCOU
TAF
KCOU 191738Z 1918/2018 20010KT P6SM SCT250
     FM200100 20007KT P6SM SCT120
     FM200900 25007KT P6SM BKN050=



000
FTUS43 KLSX 191700
TAFUIN
TAF
KUIN 191738Z 1918/2018 22009KT P6SM SCT250
     FM200200 20008KT P6SM SCT120
     FM201100 25007KT P6SM BKN050=



000
FTUS43 KLSX 191500 AAA
TAFSTL
TAF AMD
KSTL 191514Z 1915/2018 20006KT P6SM SCT250
     FM201200 24007KT P6SM BKN050
     FM201700 29010KT P6SM FEW050=



000
FTUS43 KLSX 191400 AAB
TAFUIN
TAF AMD
KUIN 191453Z 1915/2012 19005KT P6SM SKC
     FM191500 20008KT P6SM SCT120
     FM201100 25007KT P6SM BKN050=



000
FTUS43 KLSX 191400 AAB
TAFSUS
TAF AMD
KSUS 191431Z 1915/2012 VRB03KT 5SM BR SCT020
     FM191500 20006KT P6SM SCT120
     FM201100 24005KT P6SM BKN050=



000
FTUS43 KLSX 191300 AAA
TAFUIN
TAF AMD
KUIN 191313Z 1913/2012 VRB03KT P6SM SKC
      TEMPO 1913/1915 4SM BR
     FM191500 20008KT P6SM SCT120
     FM201100 25007KT P6SM BKN050=



000
FTUS43 KLSX 191300 AAA
TAFSUS
TAF AMD
KSUS 191311Z 1913/2012 VRB03KT 1/2SM FG VV001
      TEMPO 1913/1914 2SM BR SKC
     FM191400 VRB03KT 4SM BR SKC
     FM191500 20006KT P6SM SCT120
     FM201100 24005KT P6SM BKN050=



000
FTUS43 KLSX 191100
TAFSTL
TAF
KSTL 191120Z 1912/2018 VRB03KT P6SM SKC
     FM191500 20007KT P6SM SCT120
     FM201200 24007KT P6SM BKN050
     FM201700 29010KT P6SM FEW050=



000
FTUS43 KLSX 191100
TAFUIN
TAF
KUIN 191120Z 1912/2012 VRB03KT P6SM SKC
     FM191500 20008KT P6SM SCT120
     FM201100 25007KT P6SM BKN050=



000
FTUS43 KLSX 191100
TAFCOU
TAF
KCOU 191120Z 1912/2012 19007KT P6SM SCT120
     FM201100 25007KT P6SM BKN050=



000
FTUS43 KLSX 191100
TAFSUS
TAF
KSUS 191120Z 1912/2012 VRB03KT 1/2SM FG VV001
      TEMPO 1912/1913 1SM BR
     FM191300 VRB03KT 3SM BR SKC
      TEMPO 1913/1915 6SM BR
     FM191500 20006KT P6SM SCT120
     FM201100 24005KT P6SM BKN050=



000
FTUS43 KLSX 191000 AAB
TAFSUS
TAF AMD
KSUS 191002Z 1910/2006 00000KT 1SM BR SKC
      TEMPO 1910/1912 1/2SM FG
     FM191200 VRB03KT 3SM BR SKC
      TEMPO 1912/1913 6SM BR
     FM191300 19004KT P6SM SKC=



000
FTUS43 KLSX 190800 AAA
TAFSTL
TAF AMD
KSTL 190850Z 1909/2012 VRB03KT P6SM SKC
     FM191500 20006KT P6SM SCT250=



000
FTUS43 KLSX 190700 AAA
TAFSUS
TAF AMD
KSUS 190705Z 1907/2006 00000KT 5SM BR SKC
      TEMPO 1907/1911 2SM BR
     FM191100 VRB03KT 3SM BR SKC
      TEMPO 1911/1913 6SM BR
     FM191300 19004KT P6SM SKC=



000
FTUS43 KLSX 190500
TAFCOU
TAF
KCOU 190520Z 1906/2006 VRB05KT P6SM SKC
     FM191500 19007KT P6SM BKN150=



000
FTUS43 KLSX 190500
TAFSTL
TAF
KSTL 190520Z 1906/2012 VRB03KT P6SM SCT045
     FM191500 20006KT P6SM SCT250=



000
FTUS43 KLSX 190500
TAFSUS
TAF
KSUS 190520Z 1906/2006 00000KT P6SM SKC
     FM190900 00000KT 3SM BR SKC
      TEMPO 1910/1912 2SM BR
     FM191300 19005KT P6SM SCT250=



000
FTUS43 KLSX 190500
TAFUIN
TAF
KUIN 190520Z 1906/2006 VRB03KT P6SM SCT030
      TEMPO 1911/1913 3SM BR
     FM191500 20008KT P6SM BKN150=



000
FTUS43 KLSX 190200 AAB
TAFUIN
TAF AMD
KUIN 190201Z 1902/1924 35005KT P6SM BKN025
     FM190330 VRB03KT P6SM SCT030
     FM191500 20008KT P6SM BKN150=



000
FTUS43 KLSX 190000 AAA
TAFUIN
TAF AMD
KUIN 190021Z 1900/1924 35005KT P6SM BKN025
     FM190200 VRB03KT P6SM SCT030
     FM191500 20008KT P6SM BKN150=



000
FTUS43 KLSX 182300
TAFCOU
TAF
KCOU 182320Z 1900/1924 VRB05KT P6SM SKC
     FM191500 19007KT P6SM BKN150=



000
FTUS43 KLSX 182300
TAFUIN
TAF
KUIN 182320Z 1900/1924 36005KT P6SM BKN035
     FM190200 VRB03KT P6SM SKC
     FM191500 20008KT P6SM BKN150=



000
FTUS43 KLSX 182300
TAFSUS
TAF
KSUS 182320Z 1900/1924 VRB03KT P6SM SCT045
      TEMPO 1910/1913 3SM BR
     FM191500 17005KT P6SM SCT250=



000
FTUS43 KLSX 182300
TAFSTL
TAF
KSTL 182320Z 1900/2006 VRB04KT P6SM SCT045
     FM191500 17006KT P6SM SCT250=



000
FTUS43 KLSX 182100 AAA
TAFSTL
TAF AMD
KSTL 182139Z 1822/1924 35010KT P6SM BKN045
     FM190000 01005KT P6SM FEW040
     FM191500 17006KT P6SM SCT250
     FM192000 19010KT P6SM SCT120=



000
FTUS43 KLSX 181700
TAFCOU
TAF
KCOU 181739Z 1818/1918 33008KT P6SM FEW030
     FM182000 33008KT P6SM BKN035
     FM190000 02005KT P6SM FEW050
     FM190300 VRB05KT P6SM SKC=



000
FTUS43 KLSX 181700
TAFSUS
TAF
KSUS 181739Z 1818/1918 33007KT P6SM BKN035
     FM190000 33005KT P6SM SCT040
     FM191500 17005KT P6SM SCT250=



000
FTUS43 KLSX 181700
TAFUIN
TAF
KUIN 181739Z 1818/1918 35010KT P6SM SCT025 BKN035
     FM182100 35009KT P6SM BKN035
     FM190000 VRB04KT P6SM SCT045
     FM191500 19007KT P6SM SCT120=



000
FTUS43 KLSX 181700
TAFSTL
TAF
KSTL 181739Z 1818/1924 35010G18KT P6SM BKN035
     FM190000 01005KT P6SM FEW040
     FM191500 17006KT P6SM SCT250
     FM192000 19010KT P6SM SCT120=



    US Dept of Commerce
    National Oceanic and Atmospheric Administration
    National Weather Service
    1325 East West Highway
    Silver Spring, MD 20910
    Page Author: NWS Internet Services Team
Disclaimer
Information Quality
Credits
Glossary
Privacy Policy
Freedom of Information Act (FOIA)
About Us
Career Opportunities